sensor_id;sensor_type;location;lat;lon;timestamp;P1;durP1;ratioP1;P2;durP2;ratioP2
45338;SDS011;31071;51.478;5.710;2023-04-06T00:00:16;23.33;;;14.15;;
45338;SDS011;31071;51.478;5.710;2023-04-06T00:02:42;23.20;;;14.45;;
45338;SDS011;31071;51.478;5.710;2023-04-06T00:05:07;25.52;;;14.00;;
45338;SDS011;31071;51.478;5.710;2023-04-06T00:07:33;24.92;;;15.05;;
45338;SDS011;31071;51.478;5.710;2023-04-06T00:09:59;25.85;;;14.85;;
45338;SDS011;31071;51.478;5.710;2023-04-06T00:12:25;26.90;;;14.57;;
45338;SDS011;31071;51.478;5.710;2023-04-06T00:14:50;23.67;;;14.57;;
45338;SDS011;31071;51.478;5.710;2023-04-06T00:17:16;23.95;;;14.25;;
45338;SDS011;31071;51.478;5.710;2023-04-06T00:19:41;23.35;;;13.15;;
45338;SDS011;31071;51.478;5.710;2023-04-06T00:22:07;25.67;;;14.25;;
45338;SDS011;31071;51.478;5.710;2023-04-06T00:24:32;24.23;;;14.25;;
45338;SDS011;31071;51.478;5.710;2023-04-06T00:26:58;21.45;;;13.80;;
45338;SDS011;31071;51.478;5.710;2023-04-06T00:29:23;23.48;;;13.80;;
45338;SDS011;31071;51.478;5.710;2023-04-06T00:31:49;29.30;;;14.68;;
45338;SDS011;31071;51.478;5.710;2023-04-06T00:34:14;25.38;;;13.85;;
45338;SDS011;31071;51.478;5.710;2023-04-06T00:36:40;24.55;;;14.35;;
45338;SDS011;31071;51.478;5.710;2023-04-06T00:39:06;21.95;;;13.82;;
45338;SDS011;31071;51.478;5.710;2023-04-06T00:41:31;24.10;;;13.85;;
45338;SDS011;31071;51.478;5.710;2023-04-06T00:43:57;23.63;;;13.80;;
45338;SDS011;31071;51.478;5.710;2023-04-06T00:46:23;22.90;;;13.63;;
45338;SDS011;31071;51.478;5.710;2023-04-06T00:48:48;25.55;;;14.10;;
45338;SDS011;31071;51.478;5.710;2023-04-06T00:51:14;27.08;;;13.98;;
45338;SDS011;31071;51.478;5.710;2023-04-06T00:53:39;22.67;;;14.07;;
45338;SDS011;31071;51.478;5.710;2023-04-06T00:56:05;23.05;;;13.77;;
45338;SDS011;31071;51.478;5.710;2023-04-06T00:58:31;24.58;;;13.90;;
45338;SDS011;31071;51.478;5.710;2023-04-06T01:00:57;23.92;;;12.95;;
45338;SDS011;31071;51.478;5.710;2023-04-06T01:03:23;26.77;;;14.38;;
45338;SDS011;31071;51.478;5.710;2023-04-06T01:05:48;22.67;;;12.73;;
45338;SDS011;31071;51.478;5.710;2023-04-06T01:08:14;22.55;;;13.65;;
45338;SDS011;31071;51.478;5.710;2023-04-06T01:10:40;28.60;;;14.23;;
45338;SDS011;31071;51.478;5.710;2023-04-06T01:13:05;26.83;;;13.93;;
45338;SDS011;31071;51.478;5.710;2023-04-06T01:15:32;25.25;;;14.07;;
45338;SDS011;31071;51.478;5.710;2023-04-06T01:18:00;22.58;;;13.30;;
45338;SDS011;31071;51.478;5.710;2023-04-06T01:20:25;24.60;;;14.07;;
45338;SDS011;31071;51.478;5.710;2023-04-06T01:22:51;25.13;;;14.20;;
45338;SDS011;31071;51.478;5.710;2023-04-06T01:25:16;28.95;;;15.23;;
45338;SDS011;31071;51.478;5.710;2023-04-06T01:27:42;26.08;;;13.88;;
45338;SDS011;31071;51.478;5.710;2023-04-06T01:30:08;21.92;;;13.25;;
45338;SDS011;31071;51.478;5.710;2023-04-06T01:32:33;25.40;;;13.80;;
45338;SDS011;31071;51.478;5.710;2023-04-06T01:34:59;27.70;;;14.52;;
45338;SDS011;31071;51.478;5.710;2023-04-06T01:37:25;27.13;;;14.48;;
45338;SDS011;31071;51.478;5.710;2023-04-06T01:39:51;25.27;;;15.43;;
45338;SDS011;31071;51.478;5.710;2023-04-06T01:42:16;26.70;;;14.35;;
45338;SDS011;31071;51.478;5.710;2023-04-06T01:44:42;24.90;;;14.18;;
45338;SDS011;31071;51.478;5.710;2023-04-06T01:47:07;28.13;;;14.80;;
45338;SDS011;31071;51.478;5.710;2023-04-06T01:49:32;26.80;;;15.13;;
45338;SDS011;31071;51.478;5.710;2023-04-06T01:51:58;26.25;;;14.98;;
45338;SDS011;31071;51.478;5.710;2023-04-06T01:54:24;28.05;;;14.68;;
45338;SDS011;31071;51.478;5.710;2023-04-06T01:56:50;25.02;;;14.55;;
45338;SDS011;31071;51.478;5.710;2023-04-06T01:59:17;27.33;;;15.25;;
45338;SDS011;31071;51.478;5.710;2023-04-06T02:01:42;27.00;;;14.93;;
45338;SDS011;31071;51.478;5.710;2023-04-06T02:04:08;26.63;;;15.10;;
45338;SDS011;31071;51.478;5.710;2023-04-06T02:06:33;26.02;;;15.63;;
45338;SDS011;31071;51.478;5.710;2023-04-06T02:08:59;25.45;;;15.48;;
45338;SDS011;31071;51.478;5.710;2023-04-06T02:11:24;28.00;;;15.60;;
45338;SDS011;31071;51.478;5.710;2023-04-06T02:13:50;27.00;;;14.90;;
45338;SDS011;31071;51.478;5.710;2023-04-06T02:16:15;30.02;;;15.50;;
45338;SDS011;31071;51.478;5.710;2023-04-06T02:18:41;30.33;;;15.45;;
45338;SDS011;31071;51.478;5.710;2023-04-06T02:21:06;27.70;;;15.40;;
45338;SDS011;31071;51.478;5.710;2023-04-06T02:23:32;27.92;;;15.90;;
45338;SDS011;31071;51.478;5.710;2023-04-06T02:25:57;29.20;;;16.42;;
45338;SDS011;31071;51.478;5.710;2023-04-06T02:28:23;29.65;;;16.35;;
45338;SDS011;31071;51.478;5.710;2023-04-06T02:30:48;32.00;;;16.30;;
45338;SDS011;31071;51.478;5.710;2023-04-06T02:33:14;27.23;;;15.45;;
45338;SDS011;31071;51.478;5.710;2023-04-06T02:35:39;26.90;;;15.15;;
45338;SDS011;31071;51.478;5.710;2023-04-06T02:38:05;28.70;;;15.90;;
45338;SDS011;31071;51.478;5.710;2023-04-06T02:40:30;31.05;;;16.08;;
45338;SDS011;31071;51.478;5.710;2023-04-06T02:42:56;29.80;;;16.30;;
45338;SDS011;31071;51.478;5.710;2023-04-06T02:45:21;28.38;;;16.80;;
45338;SDS011;31071;51.478;5.710;2023-04-06T02:47:47;29.88;;;16.92;;
45338;SDS011;31071;51.478;5.710;2023-04-06T02:50:12;31.98;;;17.27;;
45338;SDS011;31071;51.478;5.710;2023-04-06T02:52:38;30.13;;;17.52;;
45338;SDS011;31071;51.478;5.710;2023-04-06T02:55:04;31.38;;;17.00;;
45338;SDS011;31071;51.478;5.710;2023-04-06T02:57:31;29.58;;;17.48;;
45338;SDS011;31071;51.478;5.710;2023-04-06T02:59:57;28.65;;;16.80;;
45338;SDS011;31071;51.478;5.710;2023-04-06T03:02:22;28.05;;;17.02;;
45338;SDS011;31071;51.478;5.710;2023-04-06T03:05:34;28.60;;;17.73;;
45338;SDS011;31071;51.478;5.710;2023-04-06T03:07:56;32.35;;;18.10;;
45338;SDS011;31071;51.478;5.710;2023-04-06T03:10:22;30.17;;;17.40;;
45338;SDS011;31071;51.478;5.710;2023-04-06T03:12:47;31.35;;;18.23;;
45338;SDS011;31071;51.478;5.710;2023-04-06T03:15:13;32.28;;;17.55;;
45338;SDS011;31071;51.478;5.710;2023-04-06T03:17:38;28.55;;;17.30;;
45338;SDS011;31071;51.478;5.710;2023-04-06T03:20:04;30.42;;;17.08;;
45338;SDS011;31071;51.478;5.710;2023-04-06T03:22:30;32.15;;;17.98;;
45338;SDS011;31071;51.478;5.710;2023-04-06T03:24:55;32.03;;;17.45;;
45338;SDS011;31071;51.478;5.710;2023-04-06T03:27:21;28.02;;;16.42;;
45338;SDS011;31071;51.478;5.710;2023-04-06T03:29:46;30.60;;;18.38;;
45338;SDS011;31071;51.478;5.710;2023-04-06T03:32:12;29.35;;;17.77;;
45338;SDS011;31071;51.478;5.710;2023-04-06T03:34:38;31.67;;;18.48;;
45338;SDS011;31071;51.478;5.710;2023-04-06T03:37:03;31.83;;;17.75;;
45338;SDS011;31071;51.478;5.710;2023-04-06T03:39:29;31.50;;;17.88;;
45338;SDS011;31071;51.478;5.710;2023-04-06T03:41:55;31.23;;;17.77;;
45338;SDS011;31071;51.478;5.710;2023-04-06T03:44:20;31.60;;;18.55;;
45338;SDS011;31071;51.478;5.710;2023-04-06T03:46:46;34.67;;;18.33;;
45338;SDS011;31071;51.478;5.710;2023-04-06T03:49:12;31.73;;;18.60;;
45338;SDS011;31071;51.478;5.710;2023-04-06T03:51:37;29.30;;;17.88;;
45338;SDS011;31071;51.478;5.710;2023-04-06T03:54:03;33.08;;;18.58;;
45338;SDS011;31071;51.478;5.710;2023-04-06T03:56:28;30.52;;;18.15;;
45338;SDS011;31071;51.478;5.710;2023-04-06T03:58:54;29.33;;;17.85;;
45338;SDS011;31071;51.478;5.710;2023-04-06T04:01:19;29.95;;;18.42;;
45338;SDS011;31071;51.478;5.710;2023-04-06T04:03:45;29.42;;;18.17;;
45338;SDS011;31071;51.478;5.710;2023-04-06T04:06:11;33.60;;;19.20;;
45338;SDS011;31071;51.478;5.710;2023-04-06T04:08:36;33.33;;;19.10;;
45338;SDS011;31071;51.478;5.710;2023-04-06T04:11:02;32.65;;;19.15;;
45338;SDS011;31071;51.478;5.710;2023-04-06T04:13:27;32.17;;;18.50;;
45338;SDS011;31071;51.478;5.710;2023-04-06T04:15:53;32.35;;;18.25;;
45338;SDS011;31071;51.478;5.710;2023-04-06T04:18:18;31.52;;;18.73;;
45338;SDS011;31071;51.478;5.710;2023-04-06T04:20:44;37.95;;;19.88;;
45338;SDS011;31071;51.478;5.710;2023-04-06T04:23:10;30.33;;;18.45;;
45338;SDS011;31071;51.478;5.710;2023-04-06T04:25:35;33.10;;;19.38;;
45338;SDS011;31071;51.478;5.710;2023-04-06T04:28:01;30.17;;;18.35;;
45338;SDS011;31071;51.478;5.710;2023-04-06T04:30:27;29.35;;;18.75;;
45338;SDS011;31071;51.478;5.710;2023-04-06T04:32:53;30.38;;;18.75;;
45338;SDS011;31071;51.478;5.710;2023-04-06T04:35:18;32.40;;;18.05;;
45338;SDS011;31071;51.478;5.710;2023-04-06T04:37:44;33.75;;;19.67;;
45338;SDS011;31071;51.478;5.710;2023-04-06T04:40:09;33.25;;;20.05;;
45338;SDS011;31071;51.478;5.710;2023-04-06T04:42:35;32.53;;;19.52;;
45338;SDS011;31071;51.478;5.710;2023-04-06T04:45:01;38.10;;;21.33;;
45338;SDS011;31071;51.478;5.710;2023-04-06T04:47:26;35.47;;;19.63;;
45338;SDS011;31071;51.478;5.710;2023-04-06T04:49:52;37.17;;;20.02;;
45338;SDS011;31071;51.478;5.710;2023-04-06T04:52:17;35.03;;;19.90;;
45338;SDS011;31071;51.478;5.710;2023-04-06T04:54:43;40.35;;;20.05;;
45338;SDS011;31071;51.478;5.710;2023-04-06T04:57:08;33.22;;;20.00;;
45338;SDS011;31071;51.478;5.710;2023-04-06T04:59:34;37.47;;;20.38;;
45338;SDS011;31071;51.478;5.710;2023-04-06T05:02:00;34.00;;;19.85;;
45338;SDS011;31071;51.478;5.710;2023-04-06T05:04:25;34.42;;;20.40;;
45338;SDS011;31071;51.478;5.710;2023-04-06T05:07:01;34.72;;;20.15;;
45338;SDS011;31071;51.478;5.710;2023-04-06T05:09:30;31.17;;;20.67;;
45338;SDS011;31071;51.478;5.710;2023-04-06T05:11:56;37.15;;;20.58;;
45338;SDS011;31071;51.478;5.710;2023-04-06T05:14:23;36.03;;;21.52;;
45338;SDS011;31071;51.478;5.710;2023-04-06T05:16:48;32.42;;;20.17;;
45338;SDS011;31071;51.478;5.710;2023-04-06T05:19:14;37.13;;;21.38;;
45338;SDS011;31071;51.478;5.710;2023-04-06T05:21:39;39.05;;;23.02;;
45338;SDS011;31071;51.478;5.710;2023-04-06T05:24:05;42.20;;;22.23;;
45338;SDS011;31071;51.478;5.710;2023-04-06T05:26:31;41.35;;;22.13;;
45338;SDS011;31071;51.478;5.710;2023-04-06T05:28:56;38.67;;;21.30;;
45338;SDS011;31071;51.478;5.710;2023-04-06T05:31:22;39.17;;;22.45;;
45338;SDS011;31071;51.478;5.710;2023-04-06T05:33:47;40.17;;;22.33;;
45338;SDS011;31071;51.478;5.710;2023-04-06T05:36:13;38.00;;;21.95;;
45338;SDS011;31071;51.478;5.710;2023-04-06T05:38:38;45.40;;;21.65;;
45338;SDS011;31071;51.478;5.710;2023-04-06T05:41:04;39.70;;;21.50;;
45338;SDS011;31071;51.478;5.710;2023-04-06T05:43:30;40.83;;;21.90;;
45338;SDS011;31071;51.478;5.710;2023-04-06T05:45:55;40.28;;;22.58;;
45338;SDS011;31071;51.478;5.710;2023-04-06T05:48:21;38.08;;;21.88;;
45338;SDS011;31071;51.478;5.710;2023-04-06T05:50:48;42.30;;;22.05;;
45338;SDS011;31071;51.478;5.710;2023-04-06T05:53:15;35.72;;;21.17;;
45338;SDS011;31071;51.478;5.710;2023-04-06T05:55:41;36.58;;;20.80;;
45338;SDS011;31071;51.478;5.710;2023-04-06T05:58:06;39.50;;;20.50;;
45338;SDS011;31071;51.478;5.710;2023-04-06T06:00:32;35.65;;;21.70;;
45338;SDS011;31071;51.478;5.710;2023-04-06T06:02:58;42.50;;;21.30;;
45338;SDS011;31071;51.478;5.710;2023-04-06T06:05:23;32.95;;;20.55;;
45338;SDS011;31071;51.478;5.710;2023-04-06T06:07:49;36.08;;;21.58;;
45338;SDS011;31071;51.478;5.710;2023-04-06T06:10:15;35.47;;;21.35;;
45338;SDS011;31071;51.478;5.710;2023-04-06T06:12:40;35.38;;;20.73;;
45338;SDS011;31071;51.478;5.710;2023-04-06T06:15:06;33.67;;;20.27;;
45338;SDS011;31071;51.478;5.710;2023-04-06T06:17:32;34.78;;;20.30;;
45338;SDS011;31071;51.478;5.710;2023-04-06T06:20:00;39.08;;;21.05;;
45338;SDS011;31071;51.478;5.710;2023-04-06T06:22:25;44.92;;;19.65;;
45338;SDS011;31071;51.478;5.710;2023-04-06T06:24:51;34.17;;;19.70;;
45338;SDS011;31071;51.478;5.710;2023-04-06T06:27:17;40.60;;;20.30;;
45338;SDS011;31071;51.478;5.710;2023-04-06T06:29:42;43.10;;;20.15;;
45338;SDS011;31071;51.478;5.710;2023-04-06T06:32:08;35.78;;;20.05;;
45338;SDS011;31071;51.478;5.710;2023-04-06T06:34:36;33.05;;;18.42;;
45338;SDS011;31071;51.478;5.710;2023-04-06T06:37:05;33.15;;;18.63;;
45338;SDS011;31071;51.478;5.710;2023-04-06T06:39:38;31.30;;;18.25;;
45338;SDS011;31071;51.478;5.710;2023-04-06T06:42:16;30.58;;;18.63;;
45338;SDS011;31071;51.478;5.710;2023-04-06T06:44:52;31.85;;;18.35;;
45338;SDS011;31071;51.478;5.710;2023-04-06T06:47:17;32.70;;;18.95;;
45338;SDS011;31071;51.478;5.710;2023-04-06T06:49:52;30.02;;;18.52;;
45338;SDS011;31071;51.478;5.710;2023-04-06T06:52:25;37.47;;;19.52;;
45338;SDS011;31071;51.478;5.710;2023-04-06T06:54:50;35.03;;;18.27;;
45338;SDS011;31071;51.478;5.710;2023-04-06T06:57:16;36.25;;;18.65;;
45338;SDS011;31071;51.478;5.710;2023-04-06T06:59:49;27.30;;;18.20;;
45338;SDS011;31071;51.478;5.710;2023-04-06T07:02:34;30.52;;;18.45;;
45338;SDS011;31071;51.478;5.710;2023-04-06T07:05:04;32.40;;;17.50;;
45338;SDS011;31071;51.478;5.710;2023-04-06T07:07:33;26.83;;;17.17;;
45338;SDS011;31071;51.478;5.710;2023-04-06T07:09:59;30.65;;;18.38;;
45338;SDS011;31071;51.478;5.710;2023-04-06T07:12:25;25.02;;;16.92;;
45338;SDS011;31071;51.478;5.710;2023-04-06T07:14:51;33.03;;;17.48;;
45338;SDS011;31071;51.478;5.710;2023-04-06T07:17:17;35.60;;;18.25;;
45338;SDS011;31071;51.478;5.710;2023-04-06T07:19:43;31.10;;;18.08;;
45338;SDS011;31071;51.478;5.710;2023-04-06T07:22:08;32.70;;;17.80;;
45338;SDS011;31071;51.478;5.710;2023-04-06T07:24:34;28.20;;;17.40;;
45338;SDS011;31071;51.478;5.710;2023-04-06T07:26:59;30.17;;;18.33;;
45338;SDS011;31071;51.478;5.710;2023-04-06T07:29:26;32.13;;;17.42;;
45338;SDS011;31071;51.478;5.710;2023-04-06T07:31:52;27.98;;;16.23;;
45338;SDS011;31071;51.478;5.710;2023-04-06T07:34:18;32.53;;;18.02;;
45338;SDS011;31071;51.478;5.710;2023-04-06T07:36:43;33.05;;;18.27;;
45338;SDS011;31071;51.478;5.710;2023-04-06T07:39:09;34.22;;;17.90;;
45338;SDS011;31071;51.478;5.710;2023-04-06T07:41:35;31.83;;;17.50;;
45338;SDS011;31071;51.478;5.710;2023-04-06T07:44:01;30.27;;;17.48;;
45338;SDS011;31071;51.478;5.710;2023-04-06T07:46:26;26.08;;;16.92;;
45338;SDS011;31071;51.478;5.710;2023-04-06T07:48:52;29.90;;;17.95;;
45338;SDS011;31071;51.478;5.710;2023-04-06T07:51:18;27.73;;;17.38;;
45338;SDS011;31071;51.478;5.710;2023-04-06T07:53:43;28.80;;;17.20;;
45338;SDS011;31071;51.478;5.710;2023-04-06T07:56:09;32.05;;;17.63;;
45338;SDS011;31071;51.478;5.710;2023-04-06T07:58:35;26.75;;;16.50;;
45338;SDS011;31071;51.478;5.710;2023-04-06T08:01:01;28.70;;;17.23;;
45338;SDS011;31071;51.478;5.710;2023-04-06T08:03:26;33.25;;;17.50;;
45338;SDS011;31071;51.478;5.710;2023-04-06T08:05:52;26.40;;;17.45;;
45338;SDS011;31071;51.478;5.710;2023-04-06T08:08:18;33.53;;;18.17;;
45338;SDS011;31071;51.478;5.710;2023-04-06T08:10:44;30.50;;;17.60;;
45338;SDS011;31071;51.478;5.710;2023-04-06T08:13:10;34.15;;;18.42;;
45338;SDS011;31071;51.478;5.710;2023-04-06T08:15:35;28.30;;;17.30;;
45338;SDS011;31071;51.478;5.710;2023-04-06T08:18:01;29.52;;;17.23;;
45338;SDS011;31071;51.478;5.710;2023-04-06T08:20:26;28.00;;;16.15;;
45338;SDS011;31071;51.478;5.710;2023-04-06T08:22:53;30.77;;;17.85;;
45338;SDS011;31071;51.478;5.710;2023-04-06T08:25:19;34.10;;;17.10;;
45338;SDS011;31071;51.478;5.710;2023-04-06T08:27:44;28.95;;;16.38;;
45338;SDS011;31071;51.478;5.710;2023-04-06T08:30:10;30.25;;;16.65;;
45338;SDS011;31071;51.478;5.710;2023-04-06T08:32:36;33.40;;;16.77;;
45338;SDS011;31071;51.478;5.710;2023-04-06T08:35:01;27.42;;;17.50;;
45338;SDS011;31071;51.478;5.710;2023-04-06T08:37:27;27.02;;;16.85;;
45338;SDS011;31071;51.478;5.710;2023-04-06T08:39:52;28.00;;;16.67;;
45338;SDS011;31071;51.478;5.710;2023-04-06T08:42:21;32.25;;;16.83;;
45338;SDS011;31071;51.478;5.710;2023-04-06T08:44:50;26.25;;;15.68;;
45338;SDS011;31071;51.478;5.710;2023-04-06T08:47:17;27.33;;;16.48;;
45338;SDS011;31071;51.478;5.710;2023-04-06T08:49:43;30.13;;;17.42;;
45338;SDS011;31071;51.478;5.710;2023-04-06T08:52:10;30.17;;;16.88;;
45338;SDS011;31071;51.478;5.710;2023-04-06T08:54:37;30.02;;;16.90;;
45338;SDS011;31071;51.478;5.710;2023-04-06T08:57:03;29.70;;;16.20;;
45338;SDS011;31071;51.478;5.710;2023-04-06T08:59:30;29.75;;;17.23;;
45338;SDS011;31071;51.478;5.710;2023-04-06T09:01:56;27.60;;;16.42;;
45338;SDS011;31071;51.478;5.710;2023-04-06T09:04:22;32.30;;;18.23;;
45338;SDS011;31071;51.478;5.710;2023-04-06T09:06:47;31.33;;;17.48;;
45338;SDS011;31071;51.478;5.710;2023-04-06T09:09:14;31.77;;;17.38;;
45338;SDS011;31071;51.478;5.710;2023-04-06T09:14:12;30.23;;;17.43;;
45338;SDS011;31071;51.478;5.710;2023-04-06T09:16:39;29.77;;;17.65;;
45338;SDS011;31071;51.478;5.710;2023-04-06T09:19:06;28.60;;;17.65;;
45338;SDS011;31071;51.478;5.710;2023-04-06T09:21:33;26.83;;;16.42;;
45338;SDS011;31071;51.478;5.710;2023-04-06T09:23:59;29.90;;;17.52;;
45338;SDS011;31071;51.478;5.710;2023-04-06T09:26:26;32.25;;;17.65;;
45338;SDS011;31071;51.478;5.710;2023-04-06T09:28:58;29.92;;;17.40;;
45338;SDS011;31071;51.478;5.710;2023-04-06T09:31:30;28.63;;;16.85;;
45338;SDS011;31071;51.478;5.710;2023-04-06T09:33:58;28.60;;;17.42;;
45338;SDS011;31071;51.478;5.710;2023-04-06T09:36:34;30.98;;;16.13;;
45338;SDS011;31071;51.478;5.710;2023-04-06T09:39:03;27.42;;;16.85;;
45338;SDS011;31071;51.478;5.710;2023-04-06T09:41:30;28.08;;;15.90;;
45338;SDS011;31071;51.478;5.710;2023-04-06T09:44:04;27.13;;;16.60;;
45338;SDS011;31071;51.478;5.710;2023-04-06T09:46:35;24.80;;;15.52;;
45338;SDS011;31071;51.478;5.710;2023-04-06T09:49:04;26.90;;;16.13;;
45338;SDS011;31071;51.478;5.710;2023-04-06T09:51:40;28.83;;;16.95;;
45338;SDS011;31071;51.478;5.710;2023-04-06T09:54:18;28.60;;;16.10;;
45338;SDS011;31071;51.478;5.710;2023-04-06T09:56:46;28.98;;;16.15;;
45338;SDS011;31071;51.478;5.710;2023-04-06T09:59:27;25.20;;;15.52;;
45338;SDS011;31071;51.478;5.710;2023-04-06T10:02:06;24.75;;;15.50;;
45338;SDS011;31071;51.478;5.710;2023-04-06T10:04:49;23.67;;;13.93;;
45338;SDS011;31071;51.478;5.710;2023-04-06T10:07:41;26.20;;;13.97;;
45338;SDS011;31071;51.478;5.710;2023-04-06T10:10:07;23.40;;;13.93;;
45338;SDS011;31071;51.478;5.710;2023-04-06T10:12:34;27.33;;;14.77;;
45338;SDS011;31071;51.478;5.710;2023-04-06T10:15:01;23.90;;;13.52;;
45338;SDS011;31071;51.478;5.710;2023-04-06T10:17:27;23.20;;;13.75;;
45338;SDS011;31071;51.478;5.710;2023-04-06T10:19:54;22.85;;;13.90;;
45338;SDS011;31071;51.478;5.710;2023-04-06T10:22:28;24.08;;;13.18;;
45338;SDS011;31071;51.478;5.710;2023-04-06T10:25:01;20.70;;;12.88;;
45338;SDS011;31071;51.478;5.710;2023-04-06T10:27:28;20.50;;;12.30;;
45338;SDS011;31071;51.478;5.710;2023-04-06T10:29:54;20.98;;;12.30;;
45338;SDS011;31071;51.478;5.710;2023-04-06T10:32:36;20.13;;;11.75;;
45338;SDS011;31071;51.478;5.710;2023-04-06T10:35:06;19.63;;;10.98;;
45338;SDS011;31071;51.478;5.710;2023-04-06T10:37:53;22.63;;;12.25;;
45338;SDS011;31071;51.478;5.710;2023-04-06T10:40:25;18.77;;;11.60;;
45338;SDS011;31071;51.478;5.710;2023-04-06T10:42:52;17.73;;;10.52;;
45338;SDS011;31071;51.478;5.710;2023-04-06T10:45:19;20.67;;;11.05;;
45338;SDS011;31071;51.478;5.710;2023-04-06T10:47:46;17.02;;;10.40;;
45338;SDS011;31071;51.478;5.710;2023-04-06T10:50:13;17.33;;;10.60;;
45338;SDS011;31071;51.478;5.710;2023-04-06T10:52:41;18.23;;;10.73;;
45338;SDS011;31071;51.478;5.710;2023-04-06T10:55:08;17.92;;;10.18;;
45338;SDS011;31071;51.478;5.710;2023-04-06T10:57:37;19.13;;;10.85;;
45338;SDS011;31071;51.478;5.710;2023-04-06T11:00:04;11.50;;;8.85;;
45338;SDS011;31071;51.478;5.710;2023-04-06T11:02:31;16.50;;;9.30;;
45338;SDS011;31071;51.478;5.710;2023-04-06T11:04:57;15.68;;;7.78;;
45338;SDS011;31071;51.478;5.710;2023-04-06T11:07:26;12.70;;;7.85;;
45338;SDS011;31071;51.478;5.710;2023-04-06T11:09:54;12.48;;;8.27;;
45338;SDS011;31071;51.478;5.710;2023-04-06T11:12:23;16.08;;;8.45;;
45338;SDS011;31071;51.478;5.710;2023-04-06T11:14:57;14.07;;;9.00;;
45338;SDS011;31071;51.478;5.710;2023-04-06T11:17:29;19.40;;;8.95;;
45338;SDS011;31071;51.478;5.710;2023-04-06T11:19:55;15.07;;;8.82;;
45338;SDS011;31071;51.478;5.710;2023-04-06T11:22:21;13.75;;;8.77;;
45338;SDS011;31071;51.478;5.710;2023-04-06T11:24:47;12.25;;;8.07;;
45338;SDS011;31071;51.478;5.710;2023-04-06T11:27:14;13.13;;;7.47;;
45338;SDS011;31071;51.478;5.710;2023-04-06T11:29:41;13.80;;;7.75;;
45338;SDS011;31071;51.478;5.710;2023-04-06T11:32:07;16.10;;;7.90;;
45338;SDS011;31071;51.478;5.710;2023-04-06T11:34:37;11.13;;;6.70;;
45338;SDS011;31071;51.478;5.710;2023-04-06T11:37:07;8.27;;;5.57;;
45338;SDS011;31071;51.478;5.710;2023-04-06T11:39:42;9.00;;;5.32;;
45338;SDS011;31071;51.478;5.710;2023-04-06T11:42:21;8.65;;;5.43;;
45338;SDS011;31071;51.478;5.710;2023-04-06T11:47:17;7.68;;;5.32;;
45338;SDS011;31071;51.478;5.710;2023-04-06T11:49:44;9.38;;;6.10;;
45338;SDS011;31071;51.478;5.710;2023-04-06T11:54:51;10.85;;;6.53;;
45338;SDS011;31071;51.478;5.710;2023-04-06T11:57:18;13.48;;;6.72;;
45338;SDS011;31071;51.478;5.710;2023-04-06T11:59:45;12.88;;;6.93;;
45338;SDS011;31071;51.478;5.710;2023-04-06T12:02:11;12.40;;;6.80;;
45338;SDS011;31071;51.478;5.710;2023-04-06T12:04:37;11.25;;;6.85;;
45338;SDS011;31071;51.478;5.710;2023-04-06T12:07:03;11.90;;;7.32;;
45338;SDS011;31071;51.478;5.710;2023-04-06T12:09:29;13.13;;;8.10;;
45338;SDS011;31071;51.478;5.710;2023-04-06T12:11:55;11.00;;;7.35;;
45338;SDS011;31071;51.478;5.710;2023-04-06T12:14:21;14.43;;;8.18;;
45338;SDS011;31071;51.478;5.710;2023-04-06T12:16:46;14.40;;;8.23;;
45338;SDS011;31071;51.478;5.710;2023-04-06T12:19:12;13.70;;;8.63;;
45338;SDS011;31071;51.478;5.710;2023-04-06T12:21:37;14.02;;;9.02;;
45338;SDS011;31071;51.478;5.710;2023-04-06T12:24:05;15.75;;;9.38;;
45338;SDS011;31071;51.478;5.710;2023-04-06T12:26:31;16.02;;;7.80;;
45338;SDS011;31071;51.478;5.710;2023-04-06T12:28:58;14.05;;;8.63;;
45338;SDS011;31071;51.478;5.710;2023-04-06T12:31:36;12.48;;;8.65;;
45338;SDS011;31071;51.478;5.710;2023-04-06T12:34:06;12.45;;;8.82;;
45338;SDS011;31071;51.478;5.710;2023-04-06T12:36:32;15.30;;;9.35;;
45338;SDS011;31071;51.478;5.710;2023-04-06T12:38:58;14.93;;;9.10;;
45338;SDS011;31071;51.478;5.710;2023-04-06T12:41:25;14.30;;;9.80;;
45338;SDS011;31071;51.478;5.710;2023-04-06T12:43:51;16.08;;;9.70;;
45338;SDS011;31071;51.478;5.710;2023-04-06T12:46:16;16.80;;;9.65;;
45338;SDS011;31071;51.478;5.710;2023-04-06T12:48:42;17.88;;;10.45;;
45338;SDS011;31071;51.478;5.710;2023-04-06T12:51:08;18.08;;;9.82;;
45338;SDS011;31071;51.478;5.710;2023-04-06T12:53:33;21.25;;;11.15;;
45338;SDS011;31071;51.478;5.710;2023-04-06T12:56:01;21.15;;;11.45;;
45338;SDS011;31071;51.478;5.710;2023-04-06T12:58:27;22.70;;;12.13;;
45338;SDS011;31071;51.478;5.710;2023-04-06T13:00:53;16.83;;;11.02;;
45338;SDS011;31071;51.478;5.710;2023-04-06T13:03:20;20.42;;;11.98;;
45338;SDS011;31071;51.478;5.710;2023-04-06T13:05:47;21.58;;;12.00;;
45338;SDS011;31071;51.478;5.710;2023-04-06T13:08:14;19.00;;;11.23;;
45338;SDS011;31071;51.478;5.710;2023-04-06T13:10:47;22.02;;;12.43;;
45338;SDS011;31071;51.478;5.710;2023-04-06T13:13:14;21.38;;;11.93;;
45338;SDS011;31071;51.478;5.710;2023-04-06T13:15:39;21.52;;;12.73;;
45338;SDS011;31071;51.478;5.710;2023-04-06T13:18:06;24.27;;;13.23;;
45338;SDS011;31071;51.478;5.710;2023-04-06T13:20:32;17.70;;;11.00;;
45338;SDS011;31071;51.478;5.710;2023-04-06T13:22:57;21.13;;;12.50;;
45338;SDS011;31071;51.478;5.710;2023-04-06T13:25:23;20.33;;;12.15;;
45338;SDS011;31071;51.478;5.710;2023-04-06T13:27:48;22.00;;;12.07;;
45338;SDS011;31071;51.478;5.710;2023-04-06T13:30:14;22.02;;;12.73;;
45338;SDS011;31071;51.478;5.710;2023-04-06T13:32:40;21.00;;;12.27;;
45338;SDS011;31071;51.478;5.710;2023-04-06T13:35:06;22.00;;;13.02;;
45338;SDS011;31071;51.478;5.710;2023-04-06T13:37:32;23.17;;;13.30;;
45338;SDS011;31071;51.478;5.710;2023-04-06T13:39:59;20.05;;;12.85;;
45338;SDS011;31071;51.478;5.710;2023-04-06T13:42:24;21.73;;;12.57;;
45338;SDS011;31071;51.478;5.710;2023-04-06T13:44:51;18.73;;;12.43;;
45338;SDS011;31071;51.478;5.710;2023-04-06T13:47:17;20.52;;;12.20;;
45338;SDS011;31071;51.478;5.710;2023-04-06T13:49:42;20.05;;;11.88;;
45338;SDS011;31071;51.478;5.710;2023-04-06T13:52:08;19.15;;;12.30;;
45338;SDS011;31071;51.478;5.710;2023-04-06T13:54:35;20.75;;;12.15;;
45338;SDS011;31071;51.478;5.710;2023-04-06T13:57:01;18.48;;;12.40;;
45338;SDS011;31071;51.478;5.710;2023-04-06T13:59:36;22.17;;;12.00;;
45338;SDS011;31071;51.478;5.710;2023-04-06T14:02:02;20.35;;;12.75;;
45338;SDS011;31071;51.478;5.710;2023-04-06T14:04:28;21.30;;;12.77;;
45338;SDS011;31071;51.478;5.710;2023-04-06T14:06:54;20.90;;;13.32;;
45338;SDS011;31071;51.478;5.710;2023-04-06T14:09:19;21.75;;;12.43;;
45338;SDS011;31071;51.478;5.710;2023-04-06T14:11:45;21.95;;;13.93;;
45338;SDS011;31071;51.478;5.710;2023-04-06T14:14:11;27.65;;;14.57;;
45338;SDS011;31071;51.478;5.710;2023-04-06T14:16:36;24.98;;;14.32;;
45338;SDS011;31071;51.478;5.710;2023-04-06T14:19:02;21.17;;;13.23;;
45338;SDS011;31071;51.478;5.710;2023-04-06T14:21:27;25.83;;;14.85;;
45338;SDS011;31071;51.478;5.710;2023-04-06T14:23:53;22.70;;;13.98;;
45338;SDS011;31071;51.478;5.710;2023-04-06T14:26:18;24.05;;;14.70;;
45338;SDS011;31071;51.478;5.710;2023-04-06T14:28:44;23.85;;;13.50;;